Flight Track Log - Related Links

Times and Time Zones

All times are in EDT time to prevent confusion due to time zone crossing. See the SWA265 flight status page for this flight to view local times or setup timezone preferences in your user account.

Time Position Orientation Groundspeed Altitude Reporting Facility
EDT Latitude Longitude Course Direction KTS MPH feet Rate Location/Type
Mon 10:59:10 AM 36.0783 -115.1742 269° West 176 203 3,200  Level Los Angeles Center
Mon 11:00:12 AM 36.0775 -115.2456 269° West 214 246 4,800 1,854 Climbing Los Angeles Center
Mon 11:01:13 AM 36.1242 -115.2931 321° Northwest 242 278 7,000 2,293 Climbing Los Angeles Center
Mon 11:02:15 AM 36.1817 -115.2319 41° Northeast 253 291 9,500 2,226 Climbing Los Angeles Center
Mon 11:03:17 AM 36.1975 -115.1336 79° East 283 326 11,600 2,371 Climbing Los Angeles Center
Mon 11:04:19 AM 36.1981 -115.0256 90° East 306 352 14,400 2,613 Climbing Los Angeles Center
Mon 11:05:21 AM 36.1994 -114.9142 89° East 318 366 17,000 2,419 Climbing Los Angeles Center
Mon 11:06:23 AM 36.2003 -114.7953 89° East 336 387 19,400 2,419 Climbing Los Angeles Center
Mon 11:07:25 AM 36.2000 -114.6717 90° East 352 405 22,000 2,293 Climbing Los Angeles Center
Mon 11:08:26 AM 36.1983 -114.5481 91° East 357 411 24,100 2,146 Climbing Los Angeles Center
Mon 11:09:28 AM 36.1972 -114.3925 90° East 367 422 26,400 1,306 Climbing Los Angeles Center
Mon 11:10:30 AM 36.1953 -114.2544 91° East 383 441 26,800 774 Climbing Los Angeles Center
Mon 11:11:32 AM 36.2078 -114.1044 84° East 411 473 28,000 1,210 Climbing Los Angeles Center
Mon 11:12:34 AM 36.2294 -113.9517 80° East 432 497 29,300 1,306 Climbing Los Angeles Center
Mon 11:13:36 AM 36.2483 -113.7953 81° East 447 514 30,700 1,500 Climbing Los Angeles Center
Mon 11:14:38 AM 36.2669 -113.6397 82° East 454 522 32,400 1,597 Climbing Los Angeles Center
Mon 11:15:40 AM 36.2894 -113.4556 81° East 453 521 34,000 1,403 Climbing Los Angeles Center
Mon 11:16:42 AM 36.3061 -113.3031 82° East 451 519 35,300 1,065 Climbing Los Angeles Center
Mon 11:17:44 AM 36.3300 -113.1539 79° East 446 513 36,200 823 Climbing Los Angeles Center
Mon 11:18:46 AM 36.3697 -113.0086 71° East 442 509 37,000 387 Climbing Los Angeles Center
Mon 11:19:48 AM 36.4100 -112.8647 71° East 443 510 37,000  Level Los Angeles Center
Mon 11:20:50 AM 36.4492 -112.7178 72° East 447 514 37,000  Level Los Angeles Center
Mon 11:21:52 AM 36.4867 -112.5706 72° East 448 516 37,000  Level Los Angeles Center
Mon 11:22:54 AM 36.5325 -112.3928 72° East 450 518 37,000  Level Los Angeles Center
Mon 11:23:56 AM 36.5706 -112.2444 72° East 450 518 37,000  Level Los Angeles Center
Mon 11:24:58 AM 36.6086 -112.0953 72° East 452 520 37,000  Level Los Angeles Center
Mon 11:26:00 AM 36.6478 -111.9472 72° East 453 521 37,000  Level Los Angeles Center
Mon 11:26:22 AM 36.6536 -111.9139 78° East 455 524 37,000  Level Denver Center
Mon 11:27:25 AM 36.7019 -111.7214 73° East 456 525 37,000  Level Denver Center
Mon 11:28:27 AM 36.7367 -111.5781 73° East 455 524 37,000  Level Denver Center
Mon 11:29:29 AM 36.7794 -111.4103 72° East 454 522 37,000  Level Denver Center
Mon 11:30:31 AM 36.8144 -111.2669 73° East 453 521 37,000  Level Denver Center
Mon 11:31:33 AM 36.8556 -111.0992 73° East 452 520 37,000  Level Denver Center
Mon 11:32:35 AM 36.8922 -110.9528 73° East 457 526 37,000  Level Denver Center
Mon 11:33:37 AM 36.9336 -110.7819 73° East 459 528 37,000  Level Denver Center
Mon 11:34:39 AM 36.9686 -110.6364 73° East 458 527 37,000 48 Level Denver Center
Mon 11:35:41 AM 37.0100 -110.4642 73° East 461 531 37,100  Climbing Denver Center
Mon 11:36:43 AM 37.0444 -110.3167 74° East 461 531 37,000 -44 Descending Denver Center
Mon 11:37:57 AM 37.0850 -110.1431 74° East 462 532 37,000  Level Denver Center
Mon 11:38:59 AM 37.1197 -109.9961 73° East 462 532 37,000  Level Denver Center
Mon 11:40:01 AM 37.1656 -109.7989 74° East 461 531 37,000  Level Denver Center
Mon 11:41:04 AM 37.2006 -109.6503 73° East 461 531 37,000  Level Denver Center
Mon 11:42:06 AM 37.2397 -109.4781 74° East 459 528 37,000  Level Denver Center
Mon 11:43:08 AM 37.2733 -109.3286 74° East 463 533 37,000  Level Denver Center
Mon 11:44:10 AM 37.3125 -109.1564 74° East 459 528 37,000  Level Denver Center
Mon 11:45:12 AM 37.3456 -109.0069 74° East 462 532 37,000  Level Denver Center
Mon 11:46:14 AM 37.3781 -108.8592 74° East 459 528 37,000  Level Denver Center
Mon 11:47:16 AM 37.4169 -108.6867 74° East 458 527 37,000  Level Denver Center
Mon 11:48:18 AM 37.4500 -108.5383 74° East 459 528 37,000 48 Level Denver Center
Mon 11:49:20 AM 37.4869 -108.3667 75° East 457 526 37,100  Climbing Denver Center
Mon 11:50:22 AM 37.5189 -108.2181 75° East 457 526 37,000 -48 Descending Denver Center
Mon 11:51:24 AM 37.5569 -108.0433 75° East 461 531 37,000  Level Denver Center
Mon 11:52:26 AM 37.5881 -107.8972 75° East 454 522 37,000  Level Denver Center
Mon 11:53:28 AM 37.6244 -107.7261 75° East 452 520 37,000  Level Denver Center
Mon 11:54:30 AM 37.6556 -107.5775 75° East 455 524 37,000  Level Denver Center
Mon 11:55:32 AM 37.6919 -107.4036 75° East 459 528 37,000  Level Denver Center
Mon 11:56:34 AM 37.7228 -107.2553 75° East 457 526 37,000 48 Level Denver Center
Mon 11:57:36 AM 37.7536 -107.1047 75° East 461 531 37,100 44 Climbing Denver Center
Mon 11:58:50 AM 37.7897 -106.9292 75° East 463 533 37,100 -44 Level Denver Center
Mon 11:59:53 AM 37.8281 -106.7364 76° East 466 536 37,000 -48 Descending Denver Center
Mon 12:00:55 PM 37.8636 -106.5583 76° East 468 539 37,000  Level Denver Center
Mon 12:01:57 PM 37.8956 -106.3992 76° East 465 535 37,000  Level Denver Center
Mon 12:02:59 PM 37.9250 -106.2483 76° East 462 532 37,000 48 Level Denver Center
Mon 12:04:01 PM 37.9594 -106.0725 76° East 461 531 37,100  Climbing Denver Center
Mon 12:05:03 PM 37.9889 -105.9222 76° East 459 528 37,000 -48 Descending Denver Center
Mon 12:06:05 PM 38.0236 -105.7464 76° East 459 528 37,000  Level Denver Center
Mon 12:07:07 PM 38.0467 -105.6206 77° East 460 529 37,000 48 Level Denver Center
Mon 12:08:09 PM 38.0864 -105.4133 76° East 473 544 37,100  Climbing Denver Center
Mon 12:09:11 PM 38.1156 -105.2581 77° East 472 543 37,000 -48 Descending Denver Center
Mon 12:10:13 PM 38.1458 -105.1011 76° East 475 547 37,000  Level Denver Center
Mon 12:11:15 PM 38.1789 -104.9203 77° East 471 542 37,000  Level Denver Center
Mon 12:12:17 PM 38.2083 -104.7622 77° East 477 549 37,000  Level Denver Center
Mon 12:13:19 PM 38.2422 -104.5728 77° East 474 545 37,000  Level Denver Center
Mon 12:14:21 PM 38.2694 -104.4256 77° East 468 539 37,000  Level Denver Center
Mon 12:15:23 PM 38.3011 -104.2450 77° East 467 537 37,000  Level Denver Center
Mon 12:16:25 PM 38.3289 -104.0883 77° East 466 536 37,000  Level Denver Center
Mon 12:17:27 PM 38.3506 -103.9642 77° East 461 531 37,000  Level Denver Center
Mon 12:18:42 PM 38.3908 -103.7333 77° East 465 535 37,000  Level Denver Center
Mon 12:19:44 PM 38.4211 -103.5542 78° East 461 531 37,000  Level Denver Center
Mon 12:20:46 PM 38.4486 -103.3953 77° East 461 531 37,000 48 Level Denver Center
Mon 12:21:48 PM 38.4747 -103.2406 78° East 465 535 37,100  Climbing Denver Center
Mon 12:22:50 PM 38.5047 -103.0614 78° East 464 534 37,000 -48 Descending Denver Center
Mon 12:23:52 PM 38.5292 -102.9064 79° East 465 535 37,000  Level Denver Center
Mon 12:24:54 PM 38.5608 -102.7247 77° East 469 540 37,000  Level Denver Center
Mon 12:25:56 PM 38.5861 -102.5672 78° East 471 542 37,000  Level Denver Center
Mon 12:27:10 PM 38.6153 -102.3842 78° East 472 543 37,000  Level Denver Center
Mon 12:28:13 PM 38.6453 -102.2017 78° East 469 540 37,000  Level Denver Center
Mon 12:29:15 PM 38.6750 -102.0150 78° East 478 550 37,000  Level Denver Center
Mon 12:30:17 PM 38.6992 -101.8567 79° East 475 547 37,000  Level Denver Center
Mon 12:31:31 PM 38.7278 -101.6714 79° East 473 544 37,000  Level Denver Center
Mon 12:32:33 PM 38.7606 -101.4594 79° East 474 545 37,000  Level Denver Center
Mon 12:33:35 PM 38.7842 -101.3014 79° East 471 542 37,000  Level Denver Center
Mon 12:34:37 PM 38.8122 -101.1175 79° East 470 541 37,000  Level Denver Center
Mon 12:35:39 PM 38.8358 -100.9606 79° East 467 537 37,000  Level Denver Center
Mon 12:36:41 PM 38.8561 -100.8286 79° East 469 540 37,000  Level Denver Center
Mon 12:37:43 PM 38.8861 -100.6178 80° East 471 542 37,000  Level Denver Center
Mon 12:38:45 PM 38.9092 -100.4606 79° East 469 540 37,000  Level Denver Center
Mon 12:39:47 PM 38.9350 -100.2744 80° East 472 543 37,000  Level Denver Center
Mon 12:40:49 PM 38.9575 -100.1158 80° East 472 543 37,000  Level Denver Center
Mon 12:41:51 PM 38.9842 -99.9303 79° East 472 543 37,000  Level Denver Center
Mon 12:42:53 PM 39.0053 -99.7694 80° East 475 547 37,000  Level Denver Center
Mon 12:43:56 PM 39.0317 -99.5803 80° East 478 550 37,000  Level Denver Center
Mon 12:44:58 PM 39.0536 -99.4183 80° East 480 552 37,000  Level Denver Center
Mon 12:46:00 PM 39.0783 -99.2275 80° East 482 555 37,000  Level Denver Center
Mon 12:47:02 PM 39.0994 -99.0628 81° East 486 559 37,000  Level Denver Center
Mon 12:48:04 PM 39.1236 -98.8761 80° East 486 559 37,000  Level Denver Center
Mon 12:49:06 PM 39.1453 -98.7072 81° East 481 554 37,000  Level Denver Center
Mon 12:50:08 PM 39.1661 -98.5375 81° East 481 554 37,000  Level Denver Center
Mon 12:51:27 PM 39.1944 -98.3142 81° East 478 550 37,000  Level Kansas City Center
Mon 12:52:29 PM 39.2156 -98.1439 81° East 480 552 37,000  Level Kansas City Center
Mon 12:53:31 PM 39.2372 -97.9614 81° East 470 541 37,000  Level Kansas City Center
Mon 12:54:33 PM 39.2586 -97.7944 81° East 483 556 37,000  Level Kansas City Center
Mon 12:55:35 PM 39.2783 -97.6267 81° East 475 547 37,000  Level Kansas City Center
Mon 12:56:37 PM 39.2992 -97.4472 81° East 477 549 37,000  Level Kansas City Center
Mon 12:57:39 PM 39.3217 -97.2553 81° East 482 555 37,000  Level Kansas City Center
Mon 12:58:41 PM 39.3397 -97.0894 82° East 486 559 37,000  Level Kansas City Center
Mon 12:59:43 PM 39.3622 -96.8953 81° East 488 562 37,000  Level Kansas City Center
Mon 01:00:45 PM 39.3800 -96.7275 82° East 492 566 37,000  Level Kansas City Center
Mon 01:01:47 PM 39.3983 -96.5606 82° East 491 565 37,000  Level Kansas City Center
Mon 01:02:49 PM 39.4164 -96.3894 82° East 494 568 37,000  Level Kansas City Center
Mon 01:03:51 PM 39.4386 -96.1811 82° East 489 563 37,000  Level Kansas City Center
Mon 01:04:53 PM 39.4556 -96.0036 83° East 488 562 37,000  Level Kansas City Center
Mon 01:05:55 PM 39.4728 -95.8367 82° East 486 559 37,000  Level Kansas City Center
Mon 01:06:57 PM 39.4931 -95.6428 82° East 485 558 37,000  Level Kansas City Center
Mon 01:07:59 PM 39.5117 -95.4586 82° East 484 557 37,000  Level Kansas City Center
Mon 01:09:01 PM 39.5289 -95.2867 83° East 482 555 37,000  Level Kansas City Center
Mon 01:10:03 PM 39.5453 -95.1142 83° East 484 557 37,000  Level Kansas City Center
Mon 01:11:05 PM 39.5606 -94.9481 83° East 482 555 37,000  Level Kansas City Center
Mon 01:12:08 PM 39.5783 -94.7550 83° East 481 554 37,000  Level Kansas City Center
Mon 01:13:10 PM 39.5936 -94.5886 83° East 483 556 37,000 339 Level Kansas City Center
Mon 01:14:12 PM 39.6111 -94.3961 83° East 480 552 37,700 919 Climbing Kansas City Center
Mon 01:15:14 PM 39.6261 -94.2319 83° East 479 551 38,900 629 Climbing Kansas City Center
Mon 01:16:16 PM 39.6417 -94.0436 84° East 471 542 39,000 48 Climbing Kansas City Center
Mon 01:17:18 PM 39.6556 -93.8817 84° East 473 544 39,000  Level Kansas City Center
Mon 01:18:20 PM 39.6692 -93.7181 84° East 474 545 39,000  Level Kansas City Center
Mon 01:19:22 PM 39.6822 -93.5464 84° East 480 552 39,000  Level Kansas City Center
Mon 01:20:24 PM 39.7000 -93.3442 83° East 477 549 39,000  Level Kansas City Center
Mon 01:21:26 PM 39.7144 -93.1733 84° East 480 552 39,000  Level Kansas City Center
Mon 01:22:28 PM 39.7264 -93.0017 85° East 483 556 39,000  Level Kansas City Center
Mon 01:23:30 PM 39.7394 -92.8306 84° East 483 556 39,000  Level Kansas City Center
Mon 01:24:32 PM 39.7544 -92.6292 84° East 477 549 39,000  Level Kansas City Center
Mon 01:25:34 PM 39.7669 -92.4594 84° East 477 549 39,000  Level Kansas City Center
Mon 01:26:36 PM 39.7778 -92.2919 85° East 476 548 39,000  Level Kansas City Center
Mon 01:27:38 PM 39.7903 -92.1244 84° East 474 545 39,000  Level Kansas City Center
Mon 01:28:40 PM 39.8008 -91.9572 85° East 472 543 39,000  Level Kansas City Center
Mon 01:29:42 PM 39.8153 -91.7536 85° East 474 545 39,000  Level Kansas City Center
Mon 01:30:44 PM 39.8253 -91.5850 86° East 476 548 39,000  Level Kansas City Center
Mon 01:31:46 PM 39.8369 -91.4133 85° East 479 551 39,000  Level Kansas City Center
Mon 01:32:48 PM 39.8461 -91.2419 86° East 480 552 39,000  Level Kansas City Center
Mon 01:33:50 PM 39.8592 -91.0361 85° East 480 552 39,000  Level Kansas City Center
Mon 01:34:52 PM 39.8689 -90.8744 85° East 480 552 39,000  Level Kansas City Center
Mon 01:35:54 PM 39.8789 -90.7025 86° East 479 551 39,000  Level Kansas City Center
Mon 01:36:56 PM 39.8889 -90.5294 86° East 479 551 39,000  Level Kansas City Center
Mon 01:37:58 PM 39.8994 -90.3217 86° East 481 554 39,000  Level Kansas City Center
Mon 01:38:23 PM 39.9017 -90.2528 88° East 482 555 39,000  Level Chicago Center
Mon 01:39:25 PM 39.9114 -90.0806 86° East 481 554 39,000  Level Chicago Center
Mon 01:40:27 PM 39.9197 -89.9086 86° East 480 552 39,000  Level Chicago Center
Mon 01:41:04 PM 39.9256 -89.8031 86° East 482 555 39,000  Level Kansas City Center
Mon 01:42:06 PM 39.9347 -89.6300 86° East 481 554 39,000  Level Kansas City Center
Mon 01:42:31 PM 39.9364 -89.5639 88° East 480 552 39,000  Level Chicago Center
Mon 01:43:33 PM 39.9461 -89.3553 86° East 482 555 39,000  Level Chicago Center
Mon 01:44:10 PM 39.9514 -89.2497 86° East 480 552 39,000  Level Kansas City Center
Mon 01:45:12 PM 39.9589 -89.0750 87° East 483 556 39,000  Level Kansas City Center
Mon 01:46:14 PM 39.9664 -88.9014 87° East 482 555 39,000  Level Kansas City Center
Mon 01:47:16 PM 39.9733 -88.7269 87° East 483 556 39,000  Level Kansas City Center
Mon 01:48:18 PM 39.9800 -88.5531 87° East 483 556 39,000  Level Kansas City Center
Mon 01:49:21 PM 39.9894 -88.3433 87° East 485 558 39,000  Level Kansas City Center
Mon 01:49:45 PM 39.9906 -88.2753 89° East 482 555 39,000  Level Chicago Center
Mon 01:50:47 PM 39.9967 -88.1219 87° East 480 552 39,000  Level Chicago Center
Mon 01:51:49 PM 40.0033 -87.9194 87° East 477 549 39,000  Level Chicago Center
Mon 01:52:08 PM 40.0050 -87.8611 88° East 477 549 39,000  Level Indianapolis Center
Mon 01:53:10 PM 40.0106 -87.6883 88° East 475 547 39,000  Level Indianapolis Center
Mon 01:54:12 PM 40.0144 -87.5150 88° East 475 547 39,000  Level Indianapolis Center
Mon 01:55:14 PM 40.0208 -87.3422 87° East 474 545 39,000  Level Indianapolis Center
Mon 01:56:16 PM 40.0253 -87.1678 88° East 476 548 39,000  Level Indianapolis Center
Mon 01:57:18 PM 40.0294 -86.9928 88° East 479 551 39,000  Level Indianapolis Center
Mon 01:58:19 PM 40.0336 -86.8169 88° East 479 551 39,000  Level Indianapolis Center
Mon 01:59:21 PM 40.0372 -86.6411 88° East 480 552 39,000  Level Indianapolis Center
Mon 02:00:23 PM 40.0422 -86.4367 88° East 476 548 39,000  Level Indianapolis Center
Mon 02:01:06 PM 40.0456 -86.3206 88° East 477 549 39,000  Level Chicago Center
Mon 02:02:07 PM 40.0486 -86.1458 89° East 475 547 39,000  Level Chicago Center
Mon 02:02:27 PM 40.0486 -86.0883 90° East 472 543 39,000  Level Indianapolis Center
Mon 02:03:29 PM 40.0503 -85.9169 89° East 469 540 39,000  Level Indianapolis Center
Mon 02:04:31 PM 40.0533 -85.7461 89° East 466 536 39,000  Level Indianapolis Center
Mon 02:05:33 PM 40.0556 -85.5783 89° East 462 532 39,000  Level Indianapolis Center
Mon 02:06:35 PM 40.0578 -85.4106 89° East 460 529 39,000  Level Indianapolis Center
Mon 02:07:36 PM 40.0594 -85.2447 89° East 455 524 39,000  Level Indianapolis Center
Mon 02:08:38 PM 40.0603 -85.0769 90° East 458 527 39,000  Level Indianapolis Center
Mon 02:09:40 PM 40.0614 -84.9092 89° East 461 531 39,000  Level Indianapolis Center
Mon 02:10:42 PM 40.0633 -84.7392 89° East 459 528 39,000  Level Indianapolis Center
Mon 02:11:44 PM 40.0622 -84.5414 90° East 464 534 39,000  Level Indianapolis Center
Mon 02:12:46 PM 40.0650 -84.3719 89° East 461 531 39,000  Level Indianapolis Center
Mon 02:13:47 PM 40.0636 -84.2022 91° East 463 533 39,000  Level Indianapolis Center
Mon 02:14:49 PM 40.0642 -84.0306 90° East 466 536 39,000  Level Indianapolis Center
Mon 02:15:51 PM 40.0636 -83.8586 90° East 467 537 39,000  Level Indianapolis Center
Mon 02:16:53 PM 40.0636 -83.6861 90° East 469 540 39,000  Level Indianapolis Center
Mon 02:17:55 PM 40.0594 -83.5111 92° East 471 542 39,000  Level Indianapolis Center
Mon 02:18:56 PM 40.0503 -83.3347 94° East 475 547 39,000  Level Indianapolis Center
Mon 02:19:58 PM 40.0422 -83.1578 93° East 479 551 39,000  Level Indianapolis Center
Mon 02:21:00 PM 40.0350 -82.9814 93° East 479 551 39,000  Level Indianapolis Center
Mon 02:22:02 PM 40.0267 -82.8083 94° East 476 548 39,000  Level Indianapolis Center
Mon 02:23:04 PM 40.0183 -82.6342 94° East 476 548 39,000  Level Indianapolis Center
Mon 02:24:06 PM 40.0081 -82.4319 94° East 475 547 39,000  Level Indianapolis Center
Mon 02:25:07 PM 39.9992 -82.2606 94° East 472 543 39,000  Level Indianapolis Center
Mon 02:26:09 PM 39.9889 -82.0906 94° East 468 539 39,000  Level Indianapolis Center
Mon 02:27:11 PM 39.9800 -81.9211 94° East 464 534 39,000  Level Indianapolis Center
Mon 02:28:13 PM 39.9697 -81.7392 94° East 464 534 39,000  Level Indianapolis Center
Mon 02:29:15 PM 39.9600 -81.5850 95° East 462 532 39,000  Level Indianapolis Center
Mon 02:30:17 PM 39.9425 -81.4133 98° East 461 531 39,000  Level Indianapolis Center
Mon 02:31:18 PM 39.9233 -81.2450 98° East 465 535 39,000  Level Indianapolis Center
Mon 02:32:20 PM 39.9044 -81.0794 98° East 463 533 39,000  Level Indianapolis Center
Mon 02:33:22 PM 39.8847 -80.9106 99° East 468 539 39,000  Level Indianapolis Center
Mon 02:34:24 PM 39.8617 -80.7100 98° East 466 536 39,000  Level Indianapolis Center
Mon 02:35:33 PM 39.8419 -80.5208 98° East 465 535 39,000  Level Cleveland Center
Mon 02:36:33 PM 39.8208 -80.3506 99° East 465 535 39,000  Level Cleveland Center
Mon 02:38:30 PM 39.7872 -80.0581 98° East 457 526 39,000 -171 Level Washington Center
Mon 02:39:28 PM 39.7661 -79.8919 99° East 457 526 38,500 -1,462 Descending Washington Center
Mon 02:40:29 PM 39.7447 -79.7286 100° East 457 526 36,100 -2,754 Descending Washington Center
Mon 02:41:30 PM 39.7233 -79.5628 99° East 462 532 32,900 -3,227 Descending Washington Center
Mon 02:42:28 PM 39.7017 -79.3944 99° East 468 539 29,700 -2,949 Descending Washington Center
Mon 02:43:28 PM 39.6817 -79.2289 99° East 468 539 27,100 -2,331 Descending Washington Center
Mon 02:44:29 PM 39.6594 -79.0686 100° East 468 539 25,000 -1,059 Descending Washington Center
Mon 02:45:27 PM 39.6206 -78.8972 106° East 455 524 25,000 -101 Level Washington Center
Mon 02:46:28 PM 39.5850 -78.7392 106° East 455 524 24,800 -1,328 Descending Washington Center
Mon 02:47:29 PM 39.5514 -78.5872 106° East 450 518 22,300 -2,164 Descending Washington Center
Mon 02:48:30 PM 39.5253 -78.4675 106° East 443 510 20,400 -2,136 Descending Washington Center
Mon 02:49:27 PM 39.4892 -78.3103 107° East 425 489 18,100 -2,441 Descending Washington Center
Mon 02:50:28 PM 39.4589 -78.1747 106° East 413 475 15,600 -1,736 Descending Washington Center
Mon 02:51:28 PM 39.4283 -78.0392 106° East 400 460 14,600 -992 Descending Washington Center
Mon 02:52:29 PM 39.3997 -77.9119 106° East 385 443 13,600 -1,537 Descending Washington Center
Mon 02:53:29 PM 39.3917 -77.7803 94° East 374 430 11,500 -1,361 Descending Washington Center
Mon 02:54:28 PM 39.4083 -77.6544 80° East 361 415 10,900 -250 Descending Washington Center
Mon 02:55:29 PM 39.4231 -77.5286 81° East 355 409 11,000 50 Climbing Washington Center
Mon 02:56:29 PM 39.4394 -77.4081 80° East 349 402 11,000 -71 Level Washington Center
Mon 02:56:53 PM 39.4500 -77.3500 77° East 305 351 10,900 -77 Descending Potomac TRACON
Mon 02:57:47 PM 39.4667 -77.2500 78° East 293 337 10,900 -368 Level Potomac TRACON
Mon 02:58:47 PM 39.4667 -77.1500 90° East 292 336 10,200 -1,100 Descending Potomac TRACON
Mon 02:59:47 PM 39.4667 -77.0500 90° East 284 327 8,700 -1,421 Descending Potomac TRACON
Mon 03:00:41 PM 39.4667 -76.9667 90° East 281 323 7,500 -1,421 Descending Potomac TRACON
Mon 03:01:41 PM 39.4833 -76.8667 78° East 276 318 6,000 -1,388 Descending Potomac TRACON
Mon 03:02:42 PM 39.4333 -76.8000 134° Southeast 256 295 4,700 -992 Descending Potomac TRACON
Mon 03:03:42 PM 39.3667 -76.8167 191° South 249 287 4,000 -397 Descending Potomac TRACON
Mon 03:04:43 PM 39.3167 -76.8667 218° Southwest 249 287 3,900  Descending Potomac TRACON
Mon 03:05:43 PM 39.2833 -76.9333 237° Southwest 218 251 4,000 -450 Climbing Potomac TRACON
Mon 03:06:43 PM 39.2333 -76.9667 207° Southwest 217 250 3,000 -800 Descending Potomac TRACON
Mon 03:07:43 PM 39.1833 -76.9333 153° Southeast 218 251 2,400 -500 Descending Potomac TRACON
Mon 03:08:43 PM 39.1833 -76.8667 90° East 206 237 2,000 -333 Descending Potomac TRACON
Mon 03:09:49 PM 39.1833 -76.8000 90° East 153 176 1,700 -450 Descending Potomac TRACON
Mon 03:10:43 PM 39.1833 -76.7500 90° East 131 151 1,100 -650 Descending Potomac TRACON
Mon 03:11:49 PM 39.1833 -76.7000 90° East 131 151 400 -636 Descending Potomac TRACON
Mon 03:13:00 PM 39.1667 -76.6667 96° East  Level FlightAware Approximate

Login

Don't have an account? Register now (free) for customized features, flight alerts, and more!